Time;durP1;ratioP1;P1;durP2;ratioP2;P2;SDS_P1;SDS_P2;PMS_P1;PMS_P2;Temp;Humidity;BMP_temperature;BMP_pressure;BME280_temperature;BME280_humidity;BME280_pressure;Samples;Min_cycle;Max_cycle;Signal;HPM_P1;HPM_P2
2024/01/11 00:03:32;;;;;;;25.00;10.30;;;;;;;0.03;99.12;101219.81;682149;1265;138538;-79
2024/01/11 00:18:37;;;;;;;48.00;14.20;;;;;;;0.14;98.92;101204.71;682035;1260;138526;-79
2024/01/11 00:33:41;;;;;;;51.00;16.90;;;;;;;0.37;98.70;101221.74;682295;1265;140002;-80
2024/01/11 00:48:45;;;;;;;40.70;14.50;;;;;;;0.54;98.83;101227.41;682172;1265;141437;-79
2024/01/11 01:03:49;;;;;;;31.80;12.10;;;;;;;0.33;99.16;101197.61;682302;1265;138193;-79
2024/01/11 01:18:54;;;;;;;68.10;23.60;;;;;;;0.43;98.22;101224.64;682071;1265;138750;-80
2024/01/11 01:33:58;;;;;;;70.20;20.10;;;;;;;0.49;99.16;101209.65;681997;1263;139297;-79
2024/01/11 01:49:02;;;;;;;49.00;14.90;;;;;;;0.53;99.25;101164.09;682082;1266;138939;-79
2024/01/11 02:04:06;;;;;;;49.50;15.20;;;;;;;0.71;99.47;101176.61;682334;1263;139290;-79
2024/01/11 02:19:13;;;;;;;49.40;16.60;;;;;;;0.91;99.56;101163.05;682202;1263;140355;-79
2024/01/11 02:34:18;;;;;;;27.50;10.50;;;;;;;0.86;99.90;101125.65;682271;1263;139174;-79
2024/01/11 02:49:23;;;;;;;42.00;14.70;;;;;;;0.81;100.00;101088.11;682183;1265;139930;-80
2024/01/11 03:04:27;;;;;;;58.40;18.80;;;;;;;0.92;100.00;101063.10;682310;1263;138833;-80
2024/01/11 03:19:30;;;;;;;40.00;14.40;;;;;;;1.16;100.00;101056.39;682219;1274;139286;-79
2024/01/11 03:34:34;;;;;;;34.60;13.60;;;;;;;1.54;100.00;101052.92;682155;1264;139139;-79
2024/01/11 03:49:39;;;;;;;36.20;14.10;;;;;;;1.72;100.00;101019.64;682220;1263;139712;-79
2024/01/11 04:04:43;;;;;;;36.50;14.80;;;;;;;1.87;100.00;101014.70;682103;1261;139374;-80
2024/01/11 04:19:48;;;;;;;22.80;11.10;;;;;;;1.96;100.00;101015.91;682270;1265;138741;-80
2024/01/11 04:34:51;;;;;;;20.10;9.50;;;;;;;1.95;100.00;101000.61;682175;1259;139144;-80
2024/01/11 04:49:55;;;;;;;40.90;15.80;;;;;;;1.93;100.00;100990.86;682019;1263;138257;-80
2024/01/11 05:04:59;;;;;;;38.10;13.50;;;;;;;2.16;100.00;100972.29;682087;1264;138809;-80
2024/01/11 05:20:03;;;;;;;26.30;11.90;;;;;;;2.39;100.00;100955.97;682177;1263;139502;-80
2024/01/11 05:35:07;;;;;;;26.20;18.30;;;;;;;2.44;100.00;100939.86;682028;1260;140568;-80
2024/01/11 05:50:12;;;;;;;47.90;26.30;;;;;;;2.42;100.00;100919.92;681973;1264;139569;-79
2024/01/11 06:05:15;;;;;;;32.20;17.00;;;;;;;2.52;100.00;100900.66;681797;1262;140305;-80
2024/01/11 06:20:20;;;;;;;38.20;23.70;;;;;;;2.60;100.00;100894.08;682091;1265;139992;-80
2024/01/11 06:35:24;;;;;;;33.70;16.70;;;;;;;2.69;100.00;100910.48;681959;1264;139477;-80
2024/01/11 06:50:28;;;;;;;173.30;66.80;;;;;;;2.65;100.00;100907.86;682138;1261;139059;-79
2024/01/11 07:05:32;;;;;;;72.00;27.00;;;;;;;2.61;99.98;100907.70;682087;1264;139329;-79
2024/01/11 07:20:37;;;;;;;61.00;25.80;;;;;;;2.74;100.00;100918.67;682048;1260;139676;-80
2024/01/11 07:35:41;;;;;;;79.90;29.60;;;;;;;2.83;100.00;100925.73;681881;1267;139633;-80
2024/01/11 07:50:45;;;;;;;209.80;88.60;;;;;;;2.43;100.00;100930.23;682229;1275;139436;-79
2024/01/11 08:05:50;;;;;;;81.20;41.80;;;;;;;2.63;100.00;100916.07;681949;1264;141186;-79
2024/01/11 08:20:55;;;;;;;118.40;44.90;;;;;;;2.38;100.00;100884.86;682351;1259;140178;-79
2024/01/11 08:36:00;;;;;;;67.10;27.40;;;;;;;2.63;100.00;100884.61;682089;1260;139379;-79
2024/01/11 08:51:06;;;;;;;66.00;22.60;;;;;;;2.98;100.00;100883.55;682430;1259;139531;-79
2024/01/11 09:06:13;;;;;;;44.50;21.80;;;;;;;3.37;100.00;100887.58;682173;1263;140543;-80
2024/01/11 09:21:18;;;;;;;41.00;18.80;;;;;;;3.44;100.00;100901.97;682255;1261;139847;-80
2024/01/11 09:36:22;;;;;;;35.20;14.60;;;;;;;3.51;99.92;100899.73;682271;1259;139909;-81
2024/01/11 09:51:29;;;;;;;141.10;57.60;;;;;;;3.53;99.96;100883.58;682082;1263;138926;-81
2024/01/11 10:06:38;;;;;;;32.40;14.70;;;;;;;3.45;100.00;100870.59;682033;1262;139420;-81
2024/01/11 10:21:43;;;;;;;55.40;25.70;;;;;;;3.45;99.93;100867.86;682159;1259;139551;-81
2024/01/11 10:36:47;;;;;;;41.80;18.70;;;;;;;3.55;99.99;100856.30;682041;1259;140701;-80
2024/01/11 10:52:06;;;;;;;75.00;28.70;;;;;;;3.63;99.66;100859.52;682425;1259;138704;-83
2024/01/11 11:07:14;;;;;;;160.00;47.20;;;;;;;3.68;99.20;100849.93;682263;1259;140089;-82
2024/01/11 11:22:19;;;;;;;102.20;44.50;;;;;;;3.71;99.60;100845.14;682374;1259;139276;-82
2024/01/11 11:37:24;;;;;;;58.80;26.60;;;;;;;3.75;99.62;100834.03;682329;1259;139134;-82
2024/01/11 11:52:31;;;;;;;42.80;17.80;;;;;;;3.87;99.82;100835.64;682229;1259;138858;-81
2024/01/11 12:07:35;;;;;;;36.70;17.30;;;;;;;4.04;99.77;100821.79;682152;1264;139654;-81
2024/01/11 12:22:38;;;;;;;33.30;15.20;;;;;;;4.13;99.91;100817.36;682186;1263;140981;-78
2024/01/11 12:38:15;;;;;;;129.20;54.90;;;;;;;4.41;100.00;100810.68;681980;1265;138011;-79
2024/01/11 12:53:19;;;;;;;66.60;28.70;;;;;;;4.51;99.92;100781.92;682039;1263;140291;-79
2024/01/11 13:08:28;;;;;;;67.70;26.60;;;;;;;4.76;99.81;100782.63;682306;1262;139417;-80
2024/01/11 13:23:33;;;;;;;26.00;13.40;;;;;;;4.70;99.83;100777.05;682273;1260;138997;-79
2024/01/11 13:38:37;;;;;;;34.10;16.90;;;;;;;4.68;99.89;100770.10;682304;1259;138729;-80
2024/01/11 13:53:42;;;;;;;35.90;16.20;;;;;;;4.95;99.98;100771.35;682277;1263;139207;-79
2024/01/11 14:08:45;;;;;;;116.10;57.50;;;;;;;5.17;100.00;100772.52;682237;1263;140238;-79
2024/01/11 14:23:51;;;;;;;44.60;22.60;;;;;;;5.41;99.96;100789.31;682177;1264;139362;-79
2024/01/11 14:38:57;;;;;;;43.30;19.80;;;;;;;5.06;99.58;100787.89;682154;1264;139093;-79
2024/01/11 14:54:03;;;;;;;56.60;25.60;;;;;;;5.07;99.96;100809.13;682205;1263;139528;-80
2024/01/11 15:09:11;;;;;;;30.10;15.90;;;;;;;5.30;99.98;100830.95;682383;1263;139665;-80
2024/01/11 15:24:23;;;;;;;27.00;14.50;;;;;;;4.97;99.56;100857.91;682025;1264;138459;-80
2024/01/11 15:39:27;;;;;;;67.40;29.90;;;;;;;4.67;99.82;100875.83;682173;1264;138381;-81
2024/01/11 15:54:37;;;;;;;81.30;32.10;;;;;;;4.55;100.00;100882.16;682024;1264;139673;-80
2024/01/11 16:09:40;;;;;;;;;;;;;;;4.60;99.93;100909.29;682234;1265;139060;-81
2024/01/11 16:24:47;;;;;;;60.90;25.60;;;;;;;4.48;99.94;100933.27;682223;1263;125802;-80
2024/01/11 16:39:59;;;;;;;34.60;18.30;;;;;;;4.43;100.00;100964.38;682073;1264;138386;-79
2024/01/11 16:55:25;;;;;;;16.10;8.00;;;;;;;4.38;99.92;100972.60;681991;1264;139835;-80
2024/01/11 17:10:29;;;;;;;75.50;30.20;;;;;;;4.26;98.85;100985.51;682122;1263;139108;-79
2024/01/11 17:25:35;;;;;;;31.50;13.90;;;;;;;3.98;98.22;101001.98;682084;1263;138341;-79
2024/01/11 17:40:39;;;;;;;333.50;116.00;;;;;;;3.60;97.79;101018.46;682093;1265;139165;-80
2024/01/11 17:55:44;;;;;;;156.00;57.70;;;;;;;3.43;97.41;101024.80;682021;1265;139087;-79
2024/01/11 18:10:50;;;;;;;;;;;;;;;3.36;96.51;101027.90;682074;1263;139148;-80
2024/01/11 18:25:55;;;;;;;94.60;33.70;;;;;;;3.04;95.67;101039.89;682151;1260;125075;-80
2024/01/11 18:40:59;;;;;;;95.20;34.70;;;;;;;2.71;94.29;101052.52;681934;1263;138892;-81
2024/01/11 18:56:12;;;;;;;172.40;59.50;;;;;;;2.50;93.96;101064.44;682057;1266;139616;-82
2024/01/11 19:11:19;;;;;;;104.70;39.30;;;;;;;2.43;93.51;101079.39;681972;1263;139715;-81
2024/01/11 19:26:24;;;;;;;166.60;56.50;;;;;;;2.41;93.66;101089.54;682081;1264;190141;-81
2024/01/11 19:41:40;;;;;;;143.00;44.60;;;;;;;2.19;92.99;101104.91;681893;1261;139499;-81
2024/01/11 19:56:46;;;;;;;71.50;24.70;;;;;;;2.08;93.12;101121.23;681945;1266;138908;-80
2024/01/11 20:11:50;;;;;;;34.40;12.40;;;;;;;2.15;92.82;101138.20;682123;1266;140989;-80
2024/01/11 20:26:55;;;;;;;41.00;11.90;;;;;;;2.26;92.12;101151.77;682219;1266;140449;-80
2024/01/11 20:42:00;;;;;;;38.70;15.50;;;;;;;2.16;90.27;101186.66;681930;1266;140003;-80
2024/01/11 20:57:07;;;;;;;29.30;8.00;;;;;;;1.82;88.30;101223.32;682078;1266;139282;-79
2024/01/11 21:12:12;;;;;;;34.60;10.90;;;;;;;1.49;85.60;101232.76;682068;1266;137908;-79
2024/01/11 21:27:23;;;;;;;37.10;12.00;;;;;;;1.35;84.46;101252.88;682096;1269;138846;-80
2024/01/11 21:42:28;;;;;;;23.30;9.10;;;;;;;1.12;83.44;101268.29;682009;1270;138048;-80
2024/01/11 21:57:37;;;;;;;96.10;27.40;;;;;;;0.84;83.86;101287.08;682142;1260;137660;-81
2024/01/11 22:12:45;;;;;;;368.80;91.90;;;;;;;0.48;83.10;101309.17;681977;1260;139113;-79
2024/01/11 22:27:51;;;;;;;127.00;39.50;;;;;;;0.18;83.22;101322.61;682100;1259;138432;-78
2024/01/11 22:42:55;;;;;;;88.80;27.60;;;;;;;0.15;83.29;101318.56;682176;1259;138760;-79
2024/01/11 22:57:59;;;;;;;160.70;35.30;;;;;;;0.05;83.08;101348.08;682019;1261;140510;-79
2024/01/11 23:13:04;;;;;;;46.10;13.00;;;;;;;-0.50;83.33;101362.04;682014;1259;138885;-79
2024/01/11 23:28:08;;;;;;;57.90;15.70;;;;;;;-1.22;85.52;101377.95;682063;1259;138588;-80
2024/01/11 23:43:13;;;;;;;66.60;17.50;;;;;;;-1.74;85.77;101365.27;682109;1260;139461;-79
2024/01/11 23:58:17;;;;;;;88.60;26.40;;;;;;;-2.09;86.40;101354.11;682132;1259;139076;-78
